Portada
METAR-TAF:

METAR-TAF

Aeropuertos :

Aeropuerto de Córdoba

Córdoba, España

latitud: 37-51N, longitud: 004-51W, altitud: 90 m

Observación

El informe se hizo hace 43 minutos, a las 04:00 UTC
Viento 5 kt del este
Temperatura 14°C
Humedad 88%
Presión 1011 hPa
Visibilidad 10 km o más

METAR: LEBA 160400Z AUTO 08005KT 9999 OVC020/// 14/12 Q1011

Hora: 06:43 (04:43 UTC)

Pronóstico

El informe se hizo hace 2 horas y 43 minutos, a las 02:00 UTC
Pronóstico válido del 16 a las 03 UTC al 16 a las 12 UTC
Viento 3 kt con dirección variable
Visibilidad 10 km o más
Escasas nubes a una altura de 3000 ft
Probabilidad 30% :
Temporalmente
del 16 a las 03 UTC al 16 a las 08 UTC
Visibilidad: 3000 m
Cielo nuboso a una altura de 800 ft
neblina

TAF: LEBA 160200Z 1603/1612 VRB03KT 9999 FEW030 PROB30 TEMPO 1603/1608 3000 BR BKN008

Observaciones y pronósticos meteorológicos de más de 4000 aeropuertos (mensajes METAR y TAF).

Los puntos amarillos y rojos representan las estaciones disponibles.

Ponga el ratón en el punto deseado para ver el nombre de la estación.

Haga clic para ver las observaciones y los pronósticos meteorológicos.

Para cambiar el mapa : haga clic en los botones verdes con una cruz de color negro para hacer un zoom, en el botón verde con un guión para alejar o en las flechas verdes para mapas adyacentes.


METAR-TAF: